Time;durP1;ratioP1;P1;durP2;ratioP2;P2;SDS_P1;SDS_P2;PMS_P1;PMS_P2;Temp;Humidity;BMP_temperature;BMP_pressure;BME280_temperature;BME280_humidity;BME280_pressure;Samples;Min_cycle;Max_cycle;Signal;HPM_P1;HPM_P2
2023/01/11 00:05:17;;;;;;;65.40;35.00;;;;;;;3.68;100.00;99411.95;273665;1265;22212;-90
2023/01/11 00:12:11;;;;;;;64.20;37.60;;;;;;;3.67;100.00;99412.70;272577;1262;22631;-88
2023/01/11 00:26:37;;;;;;;77.40;41.00;;;;;;;3.65;100.00;99409.38;272465;1265;22714;-88
2023/01/11 00:40:20;;;;;;;85.30;45.20;;;;;;;3.63;100.00;99416.52;271362;1266;23073;-89
2023/01/11 00:53:08;;;;;;;93.80;46.70;;;;;;;3.65;100.00;99421.60;272772;1266;22549;-88
2023/01/11 00:59:59;;;;;;;89.00;47.40;;;;;;;3.66;100.00;99427.66;273717;1266;22928;-88
2023/01/11 01:06:26;;;;;;;96.60;51.50;;;;;;;3.65;100.00;99430.80;273774;1265;22235;-87
2023/01/11 01:19:26;;;;;;;90.10;50.00;;;;;;;3.65;100.00;99430.58;273363;1266;23294;-88
2023/01/11 01:25:53;;;;;;;93.70;48.70;;;;;;;3.64;100.00;99433.00;272945;1271;22758;-88
2023/01/11 01:31:56;;;;;;;84.10;47.40;;;;;;;3.65;100.00;99427.90;271327;1266;22527;-88
2023/01/11 01:37:57;;;;;;;92.30;50.30;;;;;;;3.65;100.00;99428.13;270271;1265;22584;-87
2023/01/11 01:44:51;;;;;;;95.90;52.50;;;;;;;3.65;100.00;99427.36;270938;1263;22415;-88
2023/01/11 01:50:58;;;;;;;73.00;40.20;;;;;;;3.66;100.00;99425.26;271833;1265;22803;-87
2023/01/11 01:57:45;;;;;;;91.00;50.30;;;;;;;3.65;100.00;99431.41;269800;1265;25479;-87
2023/01/11 02:04:22;;;;;;;76.80;40.50;;;;;;;3.61;100.00;99432.09;270977;1266;22840;-87
2023/01/11 02:17:50;;;;;;;98.80;53.40;;;;;;;3.64;100.00;99432.98;271022;1256;23493;-88
2023/01/11 02:24:06;;;;;;;89.10;47.00;;;;;;;3.65;100.00;99427.62;272013;1266;22442;-89
2023/01/11 02:30:33;;;;;;;93.20;49.50;;;;;;;3.63;100.00;99428.39;273208;1266;22378;-87
2023/01/11 02:37:18;;;;;;;98.30;47.50;;;;;;;3.65;100.00;99431.03;274205;1255;22559;-87
2023/01/11 02:50:37;;;;;;;110.10;51.80;;;;;;;3.68;100.00;99412.96;272992;1265;22154;-88
2023/01/11 02:56:41;;;;;;;101.00;53.60;;;;;;;3.70;100.00;99420.09;270841;1266;22617;-89
2023/01/11 03:03:04;;;;;;;120.70;62.00;;;;;;;3.71;100.00;99427.86;272695;1266;24243;-89
2023/01/11 03:09:37;;;;;;;105.70;54.60;;;;;;;3.67;100.00;99425.64;273149;1266;22386;-89
2023/01/11 03:16:28;;;;;;;96.70;51.10;;;;;;;3.66;100.00;99424.95;274176;1267;22242;-88
2023/01/11 03:23:00;;;;;;;87.70;47.80;;;;;;;3.66;100.00;99420.61;274193;1265;22267;-90
2023/01/11 03:36:27;;;;;;;86.80;47.30;;;;;;;3.68;100.00;99420.71;271825;1265;22201;-89
2023/01/11 03:42:31;;;;;;;83.70;46.40;;;;;;;3.66;100.00;99419.63;273034;1265;22390;-89
2023/01/11 03:48:41;;;;;;;91.10;49.30;;;;;;;3.64;100.00;99409.94;273309;1265;23241;-89
2023/01/11 03:54:44;;;;;;;86.30;48.90;;;;;;;3.61;100.00;99408.20;271106;1265;25353;-88
2023/01/11 04:00:45;;;;;;;80.80;46.60;;;;;;;3.61;100.00;99410.65;270071;1266;22228;-88
2023/01/11 04:06:47;;;;;;;78.40;44.00;;;;;;;3.60;100.00;99413.45;270003;1265;22614;-91
2023/01/11 04:12:48;;;;;;;81.60;42.40;;;;;;;3.57;100.00;99414.08;270044;1265;25319;-89
2023/01/11 04:18:49;;;;;;;89.90;45.10;;;;;;;3.54;100.00;99411.70;271296;1265;22584;-89
2023/01/11 04:24:50;;;;;;;84.20;42.90;;;;;;;3.52;100.00;99405.90;272051;1265;22215;-90
2023/01/11 04:30:51;;;;;;;80.50;44.70;;;;;;;3.50;100.00;99396.38;271490;1255;23874;-89
2023/01/11 04:36:52;;;;;;;83.00;44.20;;;;;;;3.48;100.00;99397.78;270640;1265;23892;-89
2023/01/11 04:42:53;;;;;;;77.60;42.00;;;;;;;3.45;100.00;99400.11;270896;1265;22409;-89
2023/01/11 04:48:55;;;;;;;83.10;40.60;;;;;;;3.41;100.00;99393.84;270329;1265;22567;-88
2023/01/11 04:54:56;;;;;;;66.70;37.00;;;;;;;3.40;100.00;99393.16;270169;1265;22567;-89
2023/01/11 05:00:57;;;;;;;73.00;38.50;;;;;;;3.38;100.00;99386.89;270666;1265;22585;-88
2023/01/11 05:06:58;;;;;;;80.50;42.60;;;;;;;3.35;100.00;99394.30;271481;1265;22207;-89
2023/01/11 05:12:59;;;;;;;71.70;38.30;;;;;;;3.31;100.00;99398.81;273069;1265;22521;-89
2023/01/11 05:19:01;;;;;;;77.40;40.60;;;;;;;3.29;100.00;99399.98;272805;1266;22264;-89
2023/01/11 05:25:02;;;;;;;69.30;37.90;;;;;;;3.28;100.00;99397.77;271011;1265;22590;-88
2023/01/11 05:31:03;;;;;;;69.80;38.60;;;;;;;3.24;100.00;99397.23;271192;1265;22645;-90
2023/01/11 05:37:04;;;;;;;74.30;42.20;;;;;;;3.19;100.00;99393.52;271712;1266;23448;-89
2023/01/11 05:43:05;;;;;;;85.30;47.60;;;;;;;3.16;100.00;99393.08;273277;1265;23871;-89
2023/01/11 05:49:07;;;;;;;69.30;37.50;;;;;;;3.14;100.00;99397.38;272292;1266;22282;-89
2023/01/11 05:55:09;;;;;;;75.40;41.50;;;;;;;3.08;100.00;99393.39;271946;1266;22602;-88
2023/01/11 06:01:11;;;;;;;85.80;43.10;;;;;;;3.05;100.00;99388.84;269911;1265;22542;-88
2023/01/11 06:07:14;;;;;;;75.40;42.10;;;;;;;3.01;100.00;99378.45;270300;1265;23858;-89
2023/01/11 06:13:28;;;;;;;77.30;42.50;;;;;;;2.99;100.00;99371.86;269699;1265;22550;-88
2023/01/11 06:19:30;;;;;;;75.20;40.80;;;;;;;2.93;100.00;99368.41;271921;1258;22276;-89
2023/01/11 06:25:31;;;;;;;82.30;42.40;;;;;;;2.88;100.00;99370.09;273218;1266;22414;-89
2023/01/11 06:31:33;;;;;;;83.20;43.30;;;;;;;2.85;100.00;99368.11;271059;1266;22603;-88
2023/01/11 06:37:34;;;;;;;81.80;43.20;;;;;;;2.82;100.00;99365.62;270736;1265;25297;-89
2023/01/11 06:43:37;;;;;;;75.50;40.90;;;;;;;2.75;100.00;99366.09;270417;1265;22534;-88
2023/01/11 06:49:38;;;;;;;84.70;42.00;;;;;;;2.73;100.00;99373.94;270312;1265;22551;-88
2023/01/11 06:55:40;;;;;;;78.50;40.10;;;;;;;2.72;100.00;99374.04;270167;1265;23795;-89
2023/01/11 07:01:41;;;;;;;85.80;45.10;;;;;;;2.70;100.00;99370.62;273327;1266;22226;-89
2023/01/11 07:07:42;;;;;;;83.40;41.30;;;;;;;2.70;100.00;99368.70;272478;1265;22562;-88
2023/01/11 07:13:43;;;;;;;95.70;48.20;;;;;;;2.74;100.00;99366.61;271401;1265;22459;-89
2023/01/11 07:19:45;;;;;;;98.10;47.30;;;;;;;2.78;100.00;99364.05;271460;1265;22576;-88
2023/01/11 07:25:48;;;;;;;89.10;45.90;;;;;;;2.80;100.00;99364.41;270125;1267;22524;-88
2023/01/11 07:31:49;;;;;;;81.10;40.70;;;;;;;2.86;100.00;99361.34;269451;1268;22519;-89
2023/01/11 07:37:50;;;;;;;100.70;50.00;;;;;;;2.89;100.00;99362.90;271260;1267;22406;-88
2023/01/11 07:43:51;;;;;;;96.40;47.40;;;;;;;2.97;100.00;99357.98;272324;1267;23042;-89
2023/01/11 07:49:52;;;;;;;106.30;53.50;;;;;;;3.07;100.00;99362.39;273121;1267;22556;-89
2023/01/11 07:55:54;;;;;;;111.90;53.40;;;;;;;3.19;100.00;99357.50;272359;1268;22663;-89
2023/01/11 08:01:55;;;;;;;114.60;56.90;;;;;;;3.39;100.00;99349.20;272867;1267;22545;-89
2023/01/11 08:07:56;;;;;;;142.20;66.10;;;;;;;3.77;100.00;99344.23;271608;1268;22556;-89
2023/01/11 08:20:17;;;;;;;102.70;53.60;;;;;;;4.41;100.00;99332.83;273221;1267;22187;-89
2023/01/11 08:26:18;;;;;;;103.40;56.20;;;;;;;4.65;100.00;99320.10;273318;1268;22405;-89
2023/01/11 08:32:19;;;;;;;91.30;49.90;;;;;;;4.93;100.00;99317.59;271949;1267;22537;-88
2023/01/11 08:38:20;;;;;;;71.00;38.90;;;;;;;5.38;100.00;99320.61;272937;1267;22396;-90
2023/01/11 08:44:21;;;;;;;60.20;36.00;;;;;;;5.70;100.00;99323.95;273251;1267;22409;-89
2023/01/11 08:50:22;;;;;;;62.50;35.10;;;;;;;6.00;100.00;99324.48;272191;1263;22520;-89
2023/01/11 08:56:26;;;;;;;52.80;31.80;;;;;;;6.25;100.00;99328.13;269757;1267;22531;-89
2023/01/11 09:02:27;;;;;;;48.40;28.80;;;;;;;6.53;100.00;99322.95;269283;1251;22628;-90
2023/01/11 09:08:30;;;;;;;53.40;28.80;;;;;;;6.83;100.00;99318.87;269975;1267;22557;-90
2023/01/11 09:14:35;;;;;;;38.20;24.40;;;;;;;7.14;100.00;99314.67;272564;1267;22403;-91
2023/01/11 09:20:36;;;;;;;27.40;17.10;;;;;;;7.45;100.00;99301.27;270553;1267;24219;-90
2023/01/11 09:26:40;;;;;;;24.50;16.00;;;;;;;7.58;100.00;99305.92;270040;1267;22599;-89
2023/01/11 09:32:41;;;;;;;23.00;14.60;;;;;;;7.52;100.00;99305.52;270549;1267;25510;-90
2023/01/11 09:38:45;;;;;;;20.80;12.90;;;;;;;7.51;100.00;99302.08;270714;1260;22784;-89
2023/01/11 09:45:00;;;;;;;21.60;13.10;;;;;;;7.58;100.00;99290.59;270788;1263;23708;-89
2023/01/11 09:51:06;;;;;;;18.70;12.80;;;;;;;7.42;100.00;99278.93;270221;1267;22488;-90
2023/01/11 09:57:26;;;;;;;24.20;15.40;;;;;;;7.42;100.00;99280.41;271327;1267;22425;-88
2023/01/11 10:03:28;;;;;;;27.10;15.90;;;;;;;7.48;100.00;99275.70;270943;1267;22534;-92
2023/01/11 10:09:57;;;;;;;24.50;15.50;;;;;;;7.36;100.00;99272.60;270746;1267;23247;-90
2023/01/11 10:16:01;;;;;;;30.60;18.50;;;;;;;7.24;100.00;99262.86;270038;1267;23193;-90
2023/01/11 10:22:11;;;;;;;25.30;16.00;;;;;;;7.38;100.00;99255.16;270300;1267;22544;-90
2023/01/11 10:29:13;;;;;;;25.10;15.00;;;;;;;7.45;100.00;99237.92;271252;1267;22461;-91
2023/01/11 10:35:44;;;;;;;24.90;15.30;;;;;;;7.39;100.00;99225.39;270627;1267;22555;-92
2023/01/11 10:41:56;;;;;;;24.70;15.00;;;;;;;7.53;100.00;99216.44;269627;1267;2750886;-91
2023/01/11 10:48:10;;;;;;;25.90;15.50;;;;;;;7.61;100.00;99220.47;270159;1267;22595;-91
2023/01/11 10:54:22;;;;;;;22.50;13.30;;;;;;;7.77;100.00;99226.48;270047;1267;23688;-90
2023/01/11 11:00:31;;;;;;;21.70;13.70;;;;;;;7.82;100.00;99229.88;271349;1267;22551;-91
2023/01/11 11:06:42;;;;;;;18.50;11.60;;;;;;;7.41;100.00;99226.76;270552;1267;22527;-91
2023/01/11 11:12:55;;;;;;;18.20;11.10;;;;;;;6.98;100.00;99217.86;269994;1267;22639;-90
2023/01/11 11:18:58;;;;;;;23.70;12.30;;;;;;;6.76;100.00;99206.64;269909;1267;22587;-90
2023/01/11 11:25:04;;;;;;;20.80;13.80;;;;;;;6.78;100.00;99189.67;271104;1267;22557;-90
2023/01/11 11:31:12;;;;;;;17.30;11.40;;;;;;;6.97;100.00;99187.27;270619;1267;22575;-90
2023/01/11 11:37:34;;;;;;;14.40;9.80;;;;;;;7.07;100.00;99182.11;271124;1267;22496;-90
2023/01/11 11:43:38;;;;;;;10.40;6.90;;;;;;;7.14;100.00;99180.03;270125;1267;22477;-90
2023/01/11 11:49:48;;;;;;;10.10;6.50;;;;;;;7.11;100.00;99166.50;270801;1268;102276;-90
2023/01/11 11:55:51;;;;;;;13.70;9.00;;;;;;;7.00;100.00;99152.90;270220;1270;22389;-92
2023/01/11 12:02:06;;;;;;;12.50;7.90;;;;;;;6.96;100.00;99151.88;269533;1270;23187;-90
2023/01/11 12:08:13;;;;;;;12.40;7.00;;;;;;;6.92;100.00;99154.93;269134;1270;23098;-90
2023/01/11 12:14:23;;;;;;;14.10;7.60;;;;;;;6.92;99.97;99147.79;268444;1272;24253;-91
2023/01/11 12:20:32;;;;;;;9.40;6.90;;;;;;;6.82;98.47;99138.88;268850;1272;22579;-91
2023/01/11 12:26:39;;;;;;;11.70;7.00;;;;;;;6.71;98.05;99131.55;268382;1272;22560;-91
2023/01/11 12:33:13;;;;;;;11.20;7.20;;;;;;;6.64;97.82;99129.89;269126;1259;22541;-91
2023/01/11 12:39:32;;;;;;;13.00;7.50;;;;;;;6.62;97.11;99129.43;269128;1259;22590;-90
2023/01/11 12:46:01;;;;;;;11.60;7.20;;;;;;;6.59;97.12;99117.77;270139;1272;23157;-91
2023/01/11 12:52:10;;;;;;;14.00;7.60;;;;;;;6.60;96.52;99106.68;268980;1269;23714;-92
2023/01/11 12:58:29;;;;;;;11.80;7.60;;;;;;;6.61;95.82;99097.08;268595;1272;23122;-91
2023/01/11 13:04:50;;;;;;;11.80;7.40;;;;;;;6.61;95.95;99088.76;269525;1272;22424;-90
2023/01/11 13:11:33;;;;;;;10.80;7.00;;;;;;;6.58;96.02;99084.48;269888;1272;22942;-91
2023/01/11 13:18:10;;;;;;;11.40;6.10;;;;;;;6.55;95.92;99077.02;270298;1272;22920;-90
2023/01/11 13:24:24;;;;;;;9.80;6.30;;;;;;;6.54;95.74;99069.66;270430;1272;24675;-90
2023/01/11 13:30:30;;;;;;;11.40;7.20;;;;;;;6.52;95.92;99065.43;271429;1272;24317;-90
2023/01/11 13:36:39;;;;;;;13.00;7.40;;;;;;;6.49;95.64;99071.31;270300;1272;22547;-90
2023/01/11 13:42:45;;;;;;;10.30;6.40;;;;;;;6.44;95.74;99083.67;269402;1272;22711;-91
2023/01/11 13:48:52;;;;;;;12.70;7.60;;;;;;;6.37;95.45;99079.79;272323;1272;22212;-91
2023/01/11 13:55:15;;;;;;;13.50;7.40;;;;;;;6.32;95.57;99073.34;270789;1272;23648;-89
2023/01/11 14:01:19;;;;;;;13.10;8.00;;;;;;;6.26;95.65;99073.25;269944;1272;23881;-90
2023/01/11 14:07:41;;;;;;;12.20;7.50;;;;;;;6.19;95.76;99068.38;271662;1271;22387;-90
2023/01/11 14:14:16;;;;;;;16.90;8.50;;;;;;;6.12;95.97;99055.89;271202;1271;23846;-92
2023/01/11 14:20:33;;;;;;;12.40;7.30;;;;;;;6.01;95.86;99051.77;268948;1272;22552;-90
2023/01/11 14:26:58;;;;;;;16.10;8.60;;;;;;;5.89;95.85;99052.50;270813;1272;22928;-90
2023/01/11 14:33:25;;;;;;;14.70;8.50;;;;;;;5.78;95.87;99053.69;271174;1271;23804;-90
2023/01/11 14:39:39;;;;;;;18.80;10.10;;;;;;;5.62;95.99;99045.88;271999;1264;23576;-90
2023/01/11 14:45:47;;;;;;;14.50;9.10;;;;;;;5.49;96.11;99045.32;271228;1272;22221;-89
2023/01/11 14:51:58;;;;;;;24.00;11.90;;;;;;;5.33;96.20;99042.00;272612;1272;22185;-89
2023/01/11 14:58:20;;;;;;;22.30;13.60;;;;;;;5.16;96.39;99033.75;272725;1273;22269;-89
2023/01/11 15:04:21;;;;;;;16.50;10.60;;;;;;;4.93;96.21;99028.88;272222;1271;22423;-88
2023/01/11 15:10:29;;;;;;;21.30;12.40;;;;;;;4.64;96.39;99030.44;271495;1272;22293;-88
2023/01/11 15:22:56;;;;;;;20.90;11.20;;;;;;;3.98;96.77;99024.87;272151;1272;22390;-89
2023/01/11 15:37:02;;;;;;;25.00;12.80;;;;;;;3.34;97.26;99016.30;271822;1272;24336;-89
2023/01/11 15:43:15;;;;;;;34.80;18.60;;;;;;;3.01;97.44;99010.55;270017;1270;23367;-89
2023/01/11 15:49:19;;;;;;;36.30;20.40;;;;;;;2.80;98.12;99003.19;270292;1272;22542;-89
2023/01/11 15:55:58;;;;;;;40.20;23.10;;;;;;;2.62;98.49;98998.45;271286;1271;23001;-89
2023/01/11 16:02:14;;;;;;;66.40;31.10;;;;;;;2.39;99.05;98992.77;271989;1272;23532;-88
2023/01/11 16:15:50;;;;;;;80.00;39.70;;;;;;;2.31;99.71;98981.48;270895;1272;22545;-90
2023/01/11 16:22:04;;;;;;;77.60;38.70;;;;;;;2.25;99.96;98983.31;272275;1272;22965;-89
2023/01/11 16:28:14;;;;;;;78.80;35.40;;;;;;;2.21;100.00;98987.55;272204;1272;22453;-88
2023/01/11 16:34:25;;;;;;;84.20;41.10;;;;;;;2.05;99.79;98993.94;271010;1262;22579;-89
2023/01/11 16:40:40;;;;;;;75.30;37.40;;;;;;;1.88;99.96;98990.48;271326;1272;22654;-89
2023/01/11 16:47:09;;;;;;;71.10;36.40;;;;;;;1.79;100.00;98980.84;271677;1271;23042;-89
2023/01/11 16:53:18;;;;;;;64.80;34.90;;;;;;;1.69;100.00;98968.11;271057;1268;26049;-89
2023/01/11 16:59:25;;;;;;;59.20;31.90;;;;;;;1.56;100.00;98965.76;270756;1272;23746;-88
2023/01/11 17:05:30;;;;;;;60.30;31.20;;;;;;;1.25;100.00;98968.79;270748;1264;22654;-88
2023/01/11 17:11:45;;;;;;;54.80;30.60;;;;;;;1.12;100.00;98971.72;271391;1269;23324;-89
2023/01/11 17:17:52;;;;;;;73.80;37.00;;;;;;;1.09;100.00;98973.27;270377;1272;22592;-89
2023/01/11 17:24:00;;;;;;;73.60;36.40;;;;;;;1.05;100.00;98971.66;270708;1272;23095;-88
2023/01/11 17:30:04;;;;;;;81.20;39.90;;;;;;;0.94;100.00;98961.98;270711;1272;23344;-89
2023/01/11 17:36:06;;;;;;;88.70;42.00;;;;;;;0.76;100.00;98964.88;270563;1272;22212;-89
2023/01/11 17:49:01;;;;;;;92.50;45.90;;;;;;;0.32;100.00;98976.08;270019;1272;23464;-88
2023/01/11 17:55:23;;;;;;;86.40;46.40;;;;;;;0.33;100.00;98972.11;269898;1268;22607;-89
2023/01/11 18:01:28;;;;;;;120.70;63.70;;;;;;;0.32;100.00;98966.98;263107;1272;10001392;-88
2023/01/11 18:07:30;;;;;;;90.50;45.40;;;;;;;0.21;100.00;98965.11;271958;1263;22255;-88
2023/01/11 18:13:33;;;;;;;79.20;40.10;;;;;;;0.10;100.00;98962.27;271603;1267;22206;-88
2023/01/11 18:20:05;;;;;;;71.30;37.40;;;;;;;0.02;100.00;98959.56;272771;1272;23221;-88
2023/01/11 18:26:58;;;;;;;71.10;37.30;;;;;;;-0.06;100.00;98952.52;271017;1272;22565;-88
2023/01/11 18:33:10;;;;;;;85.80;44.90;;;;;;;0.01;100.00;98944.88;270549;1270;22774;-87
2023/01/11 18:39:21;;;;;;;103.60;52.40;;;;;;;0.01;100.00;98942.95;272195;1271;22591;-89
2023/01/11 18:45:23;;;;;;;109.90;54.60;;;;;;;-0.07;100.00;98952.48;272031;1272;22676;-88
2023/01/11 18:51:33;;;;;;;80.40;42.20;;;;;;;-0.16;100.00;98954.86;271834;1269;22556;-87
2023/01/11 18:58:08;;;;;;;98.10;50.10;;;;;;;-0.25;100.00;98966.98;271598;1272;23612;-88
2023/01/11 19:04:10;;;;;;;93.50;48.40;;;;;;;-0.33;100.00;98973.52;272003;1272;22557;-87
2023/01/11 19:10:20;;;;;;;90.90;47.10;;;;;;;-0.38;100.00;98969.49;272487;1269;22424;-88
2023/01/11 19:16:23;;;;;;;92.40;50.60;;;;;;;-0.47;100.00;98976.02;272510;1268;22210;-88
2023/01/11 19:22:25;;;;;;;105.10;55.50;;;;;;;-0.56;100.00;98975.70;272427;1272;22334;-87
2023/01/11 19:28:58;;;;;;;114.20;61.90;;;;;;;-0.59;100.00;98970.20;272302;1272;22193;-87
2023/01/11 19:35:02;;;;;;;159.80;90.80;;;;;;;-0.62;100.00;98967.30;272830;1272;22583;-88
2023/01/11 19:41:26;;;;;;;140.00;76.50;;;;;;;-0.64;100.00;98974.98;272896;1273;22515;-88
2023/01/11 19:47:52;;;;;;;137.80;68.20;;;;;;;-0.65;100.00;98978.39;272687;1272;22259;-88
2023/01/11 19:54:01;;;;;;;143.10;75.60;;;;;;;-0.69;100.00;98980.79;270696;1272;22573;-87
2023/01/11 20:00:31;;;;;;;139.00;72.50;;;;;;;-0.74;100.00;98985.14;270337;1268;22197;-87
2023/01/11 20:06:36;;;;;;;117.80;63.50;;;;;;;-0.74;100.00;98987.83;272558;1272;22435;-88
2023/01/11 20:12:43;;;;;;;131.70;69.50;;;;;;;-0.75;100.00;98992.85;273179;1278;22194;-88
2023/01/11 20:19:32;;;;;;;132.30;72.90;;;;;;;-0.72;100.00;98989.94;273058;1275;23054;-88
2023/01/11 20:25:35;;;;;;;130.90;69.90;;;;;;;-0.74;100.00;98991.27;273200;1272;22272;-88
2023/01/11 20:32:26;;;;;;;113.40;63.00;;;;;;;-0.76;100.00;98992.08;272854;1270;22963;-87
2023/01/11 20:38:32;;;;;;;123.70;65.10;;;;;;;-0.78;100.00;98985.66;272983;1273;23585;-88
2023/01/11 20:45:14;;;;;;;111.50;57.60;;;;;;;-0.82;100.00;98978.96;272911;1272;22204;-87
2023/01/11 20:51:15;;;;;;;113.00;57.90;;;;;;;-0.89;100.00;98978.70;271815;1271;22608;-87
2023/01/11 21:05:03;;;;;;;110.40;58.20;;;;;;;-0.90;100.00;98975.27;262714;1272;10002771;-88
2023/01/11 21:11:30;;;;;;;102.60;55.00;;;;;;;-0.93;100.00;98974.51;269823;1272;23023;-89
2023/01/11 21:17:46;;;;;;;115.30;63.00;;;;;;;-0.92;100.00;98977.95;270320;1272;22588;-87
2023/01/11 21:24:39;;;;;;;91.20;49.30;;;;;;;-0.93;100.00;98976.03;272968;1272;22133;-88
2023/01/11 21:32:06;;;;;;;119.00;60.50;;;;;;;-0.88;100.00;98979.25;270093;1272;25429;-88
2023/01/11 21:46:25;;;;;;;118.50;65.80;;;;;;;-0.83;100.00;98992.27;272901;1271;22217;-87
2023/01/11 21:52:29;;;;;;;126.80;65.70;;;;;;;-0.77;100.00;99001.71;273168;1272;22225;-88
2023/01/11 21:58:56;;;;;;;142.10;74.80;;;;;;;-0.69;100.00;99013.48;272951;1276;22206;-87
2023/01/11 22:20:46;;;;;;;169.40;85.80;;;;;;;-0.42;100.00;99047.69;273264;1279;22251;-88
2023/01/11 22:27:38;;;;;;;162.20;82.50;;;;;;;-0.32;100.00;99047.77;273302;1260;22177;-87
2023/01/11 22:34:13;;;;;;;172.50;82.80;;;;;;;-0.20;100.00;99045.58;273256;1272;22256;-90
2023/01/11 22:40:42;;;;;;;165.80;86.10;;;;;;;-0.08;100.00;99045.20;272532;1272;110385;-89
2023/01/11 22:47:08;;;;;;;165.20;86.50;;;;;;;0.03;100.00;99043.11;272848;1275;22187;-88
2023/01/11 23:01:08;;;;;;;156.20;77.00;;;;;;;0.24;100.00;99030.27;269258;1262;22525;-88
2023/01/11 23:07:09;;;;;;;157.40;79.50;;;;;;;0.28;100.00;99031.09;268986;1272;24218;-88
2023/01/11 23:19:30;;;;;;;144.80;72.70;;;;;;;0.41;100.00;99048.87;271539;1272;22419;-88
2023/01/11 23:25:57;;;;;;;158.70;81.20;;;;;;;0.45;100.00;99050.75;273127;1263;22167;-89
2023/01/11 23:32:23;;;;;;;170.70;84.10;;;;;;;0.53;100.00;99057.46;272556;1272;22194;-89
2023/01/11 23:38:24;;;;;;;155.60;78.50;;;;;;;0.62;100.00;99055.84;269922;1272;22537;-89
2023/01/11 23:44:25;;;;;;;159.00;80.70;;;;;;;0.68;100.00;99053.40;269337;1273;22633;-88
2023/01/11 23:50:26;;;;;;;179.30;88.10;;;;;;;0.75;100.00;99063.04;268828;1269;25369;-89
2023/01/11 23:56:28;;;;;;;161.40;79.80;;;;;;;0.83;100.00;99068.32;273185;1275;22193;-89
